Time;durP1;ratioP1;P1;durP2;ratioP2;P2;SDS_P1;SDS_P2;PMS_P1;PMS_P2;Temp;Humidity;BMP_temperature;BMP_pressure;BME280_temperature;BME280_humidity;BME280_pressure;Samples;Min_cycle;Max_cycle;Signal;HPM_P1;HPM_P2
2022/01/02 00:00:44;;;;;;;1.80;1.05;;;26.20;51.30;;;;;;5009978;28;20256;-57
2022/01/02 00:03:20;;;;;;;4.20;1.45;;;26.30;51.50;;;;;;5004388;28;20227;-51
2022/01/02 00:05:53;;;;;;;3.78;1.40;;;26.30;51.40;;;;;;5009778;28;20596;-53
2022/01/02 00:08:24;;;;;;;4.78;1.30;;;26.30;51.50;;;;;;5011361;28;20255;-41
2022/01/02 00:11:01;;;;;;;2.63;1.38;;;26.40;52.00;;;;;;5009303;28;20304;-47
2022/01/02 00:13:35;;;;;;;3.20;1.50;;;26.40;51.50;;;;;;5009659;28;20239;-55
2022/01/02 00:16:08;;;;;;;3.22;1.35;;;26.40;51.50;;;;;;5010797;28;20259;-43
2022/01/02 00:18:47;;;;;;;3.70;1.60;;;26.40;51.40;;;;;;4998681;28;20197;-54
2022/01/02 00:21:20;;;;;;;2.60;1.30;;;26.50;51.50;;;;;;5009737;28;20255;-38
2022/01/02 00:23:59;;;;;;;4.50;1.10;;;26.50;51.40;;;;;;5009412;28;20228;-38
2022/01/02 00:26:38;;;;;;;3.03;1.55;;;26.50;51.40;;;;;;5009687;28;20200;-44
2022/01/02 00:29:10;;;;;;;4.70;1.42;;;26.50;51.40;;;;;;5010703;28;20287;-41
2022/01/02 00:31:43;;;;;;;5.03;1.60;;;26.50;51.30;;;;;;5009695;28;20196;-38
2022/01/02 00:34:14;;;;;;;3.72;1.38;;;26.60;51.40;;;;;;5009504;28;20215;-38
2022/01/02 00:36:44;;;;;;;5.60;1.63;;;26.60;51.40;;;;;;5010123;28;20720;-38
2022/01/02 00:39:15;;;;;;;6.15;1.60;;;26.60;51.30;;;;;;5009039;28;20292;-39
2022/01/02 00:41:48;;;;;;;4.63;1.42;;;26.60;51.30;;;;;;5010216;28;20255;-38
2022/01/02 00:44:30;;;;;;;7.15;1.60;;;26.70;51.30;;;;;;5010256;28;20771;-47
2022/01/02 00:47:09;;;;;;;3.80;1.70;;;26.70;51.40;;;;;;5009066;28;20201;-47
2022/01/02 00:49:43;;;;;;;5.28;1.88;;;26.70;52.30;;;;;;5009851;28;20303;-50
2022/01/02 00:52:18;;;;;;;3.70;1.70;;;26.80;51.90;;;;;;5009478;28;20288;-54
2022/01/02 00:54:49;;;;;;;5.25;1.95;;;26.80;51.80;;;;;;5008407;28;20647;-48
2022/01/02 00:57:21;;;;;;;3.30;1.55;;;26.80;51.80;;;;;;5008868;28;20263;-49
2022/01/02 00:59:59;;;;;;;4.47;1.50;;;26.80;51.70;;;;;;5011635;28;20248;-46
2022/01/02 01:02:34;;;;;;;2.17;1.30;;;26.80;51.70;;;;;;4998209;28;20770;-52
2022/01/02 01:05:08;;;;;;;6.07;1.60;;;26.90;51.70;;;;;;5014645;28;20200;-57
2022/01/02 01:07:40;;;;;;;4.35;1.58;;;26.90;51.70;;;;;;5014788;28;20288;-57
2022/01/02 01:10:11;;;;;;;3.33;1.55;;;27.00;51.70;;;;;;5013008;28;20221;-52
2022/01/02 01:12:42;;;;;;;3.85;1.95;;;27.00;51.60;;;;;;5014106;28;20197;-56
2022/01/02 01:15:13;;;;;;;2.58;1.27;;;27.00;51.60;;;;;;5014589;28;20204;-48
2022/01/02 01:17:46;;;;;;;3.47;1.58;;;27.00;51.50;;;;;;5014227;28;20239;-57
2022/01/02 01:20:17;;;;;;;4.68;1.55;;;27.10;51.40;;;;;;5013786;28;20264;-58
2022/01/02 01:22:48;;;;;;;4.32;1.65;;;27.10;51.30;;;;;;5014096;28;20323;-50
2022/01/02 01:25:20;;;;;;;2.97;1.52;;;27.10;51.30;;;;;;5013125;28;20626;-58
2022/01/02 01:27:52;;;;;;;5.63;1.67;;;27.10;51.20;;;;;;5014027;28;20232;-51
2022/01/02 01:30:25;;;;;;;2.30;1.30;;;27.20;51.20;;;;;;5012897;28;20307;-58
2022/01/02 01:32:57;;;;;;;3.45;1.60;;;27.20;51.20;;;;;;5014338;28;20227;-57
2022/01/02 01:35:30;;;;;;;2.72;1.40;;;27.20;51.30;;;;;;5013996;28;20285;-57
2022/01/02 01:38:00;;;;;;;5.00;1.40;;;27.20;51.40;;;;;;5012552;28;20232;-51
2022/01/02 01:40:38;;;;;;;3.15;1.40;;;27.30;51.50;;;;;;5012235;28;20256;-57
2022/01/02 01:43:12;;;;;;;3.55;1.70;;;27.30;51.50;;;;;;5013884;28;20256;-57
2022/01/02 01:45:46;;;;;;;4.03;1.60;;;27.30;51.50;;;;;;5013893;28;20204;-57
2022/01/02 01:48:19;;;;;;;3.40;1.50;;;27.30;51.50;;;;;;5012199;28;20236;-46
2022/01/02 01:50:50;;;;;;;3.55;1.63;;;27.40;51.60;;;;;;5011210;28;20256;-52
2022/01/02 01:53:20;;;;;;;2.15;1.40;;;27.40;52.10;;;;;;5013079;28;20251;-53
2022/01/02 01:55:51;;;;;;;3.75;1.48;;;27.40;51.50;;;;;;5012704;28;20287;-54
2022/01/02 01:58:21;;;;;;;3.10;1.65;;;27.50;51.50;;;;;;5012324;28;20652;-45
2022/01/02 02:00:52;;;;;;;3.20;1.55;;;27.50;51.40;;;;;;4996893;28;20307;-56
2022/01/02 02:03:26;;;;;;;5.43;1.52;;;27.50;51.40;;;;;;5012648;28;20278;-47
2022/01/02 02:05:56;;;;;;;3.67;1.40;;;27.50;51.30;;;;;;5012111;28;20205;-48
2022/01/02 02:08:27;;;;;;;2.55;1.38;;;27.60;51.20;;;;;;5013579;28;20255;-49
2022/01/02 02:10:58;;;;;;;1.92;1.35;;;27.60;51.00;;;;;;5009932;28;20248;-39
2022/01/02 02:13:29;;;;;;;4.88;1.70;;;27.60;50.90;;;;;;5013379;28;20196;-45
2022/01/02 02:16:01;;;;;;;3.58;1.70;;;27.60;51.00;;;;;;5013547;28;20287;-39
2022/01/02 02:18:34;;;;;;;3.97;1.60;;;27.60;51.00;;;;;;5011763;28;20204;-43
2022/01/02 02:21:07;;;;;;;5.60;2.20;;;27.60;51.00;;;;;;5012851;28;20217;-52
2022/01/02 02:23:38;;;;;;;6.97;1.80;;;27.60;51.00;;;;;;5012795;28;20315;-43
2022/01/02 02:26:08;;;;;;;7.95;2.25;;;27.60;51.50;;;;;;5011577;28;20201;-38
2022/01/02 02:28:39;;;;;;;7.20;1.90;;;27.60;51.80;;;;;;5011695;28;20287;-40
2022/01/02 02:31:10;;;;;;;8.98;2.22;;;27.60;51.90;;;;;;5011668;28;20227;-44
2022/01/02 02:33:40;;;;;;;5.88;2.05;;;27.60;52.10;;;;;;5012834;28;20263;-43
2022/01/02 02:36:13;;;;;;;7.32;1.90;;;27.60;52.30;;;;;;5012434;28;20287;-43
2022/01/02 02:38:44;;;;;;;6.85;1.77;;;27.60;52.40;;;;;;5013283;28;20205;-50
2022/01/02 02:41:15;;;;;;;6.53;2.10;;;27.50;52.20;;;;;;5011790;28;20282;-42
2022/01/02 02:43:52;;;;;;;5.65;1.90;;;27.50;52.20;;;;;;5012872;28;20264;-41
2022/01/02 02:49:09;;;;;;;8.70;2.25;;;27.50;52.60;;;;;;5011972;28;20241;-39
2022/01/02 02:51:49;;;;;;;5.10;1.67;;;27.40;52.80;;;;;;5010644;28;20243;-46
2022/01/02 02:54:24;;;;;;;5.05;2.08;;;27.40;53.10;;;;;;5011942;28;20205;-47
2022/01/02 02:56:58;;;;;;;9.27;2.40;;;27.40;53.30;;;;;;4996508;28;20231;-39
2022/01/02 02:59:31;;;;;;;9.32;2.38;;;27.30;53.30;;;;;;5011282;28;20216;-50
2022/01/02 03:02:02;;;;;;;7.78;2.35;;;27.30;53.50;;;;;;5012458;28;20197;-39
2022/01/02 03:04:33;;;;;;;7.20;2.38;;;27.30;53.70;;;;;;5010656;28;20252;-42
2022/01/02 03:07:17;;;;;;;10.70;2.63;;;27.20;53.60;;;;;;5012059;28;20193;-38
2022/01/02 03:36:46;;;;;;;7.80;2.83;;;26.90;54.10;;;;;;5003533;28;20195;-38
2022/01/02 03:39:16;;;;;;;6.28;2.10;;;26.90;54.10;;;;;;5011564;28;20259;-39
2022/01/02 03:41:47;;;;;;;7.60;2.20;;;26.90;54.20;;;;;;5010011;28;20224;-39
2022/01/02 03:44:18;;;;;;;8.93;2.30;;;26.90;54.30;;;;;;5009653;28;20670;-41
2022/01/02 03:46:49;;;;;;;7.13;2.13;;;26.90;54.30;;;;;;5011148;28;20205;-48
2022/01/02 03:49:19;;;;;;;8.10;2.70;;;26.90;54.30;;;;;;5009838;28;20220;-41
2022/01/02 03:51:52;;;;;;;8.40;2.55;;;26.90;54.50;;;;;;5011229;28;20247;-39
2022/01/02 03:54:23;;;;;;;10.20;2.30;;;26.80;54.60;;;;;;5011615;28;20675;-47
2022/01/02 03:56:54;;;;;;;7.50;2.33;;;26.80;54.60;;;;;;5011038;28;20296;-41
2022/01/02 03:59:25;;;;;;;7.38;2.40;;;26.80;54.60;;;;;;5009891;28;20221;-38
2022/01/02 04:01:55;;;;;;;8.63;2.17;;;26.80;54.70;;;;;;5018820;28;20208;-46
2022/01/02 04:04:27;;;;;;;10.23;5.32;;;26.80;54.80;;;;;;5023842;28;20320;-43
2022/01/02 04:06:59;;;;;;;9.38;5.40;;;26.80;54.60;;;;;;5026798;28;20279;-41
2022/01/02 04:09:30;;;;;;;6.90;3.60;;;26.80;54.40;;;;;;5026945;28;20307;-46
2022/01/02 04:12:00;;;;;;;8.55;3.20;;;26.80;54.50;;;;;;5027011;28;20277;-43
2022/01/02 04:14:31;;;;;;;8.35;3.10;;;26.80;54.50;;;;;;5027423;28;20230;-47
2022/01/02 04:17:02;;;;;;;4.72;2.38;;;26.80;54.50;;;;;;5024394;28;20227;-48
2022/01/02 04:19:32;;;;;;;8.30;2.47;;;26.80;54.60;;;;;;5027782;28;20216;-57
2022/01/02 04:22:05;;;;;;;6.05;2.50;;;26.80;54.60;;;;;;5024416;28;20287;-47
2022/01/02 04:24:35;;;;;;;8.25;2.22;;;26.80;54.60;;;;;;5026728;28;20220;-45
2022/01/02 04:27:06;;;;;;;5.82;2.00;;;26.80;54.70;;;;;;5026221;28;20559;-41
2022/01/02 04:29:37;;;;;;;8.73;2.40;;;26.90;54.70;;;;;;5026784;28;20301;-44
2022/01/02 04:32:07;;;;;;;8.98;2.30;;;26.90;54.70;;;;;;5027298;28;20279;-41
2022/01/02 04:34:38;;;;;;;8.65;2.20;;;26.90;54.70;;;;;;5026251;28;20283;-43
2022/01/02 04:37:10;;;;;;;8.52;2.30;;;26.90;54.80;;;;;;5026343;28;20292;-40
2022/01/02 04:39:41;;;;;;;7.28;2.05;;;26.90;54.90;;;;;;5026038;28;20217;-39
2022/01/02 04:42:13;;;;;;;10.90;2.80;;;26.90;54.90;;;;;;5023859;28;20231;-42
2022/01/02 04:44:43;;;;;;;8.88;2.05;;;26.90;54.80;;;;;;5025439;28;20255;-44
2022/01/02 04:47:14;;;;;;;5.28;1.80;;;26.90;54.90;;;;;;5024425;28;20291;-37
2022/01/02 04:49:44;;;;;;;7.32;2.50;;;26.90;54.90;;;;;;5025985;28;20397;-49
2022/01/02 04:52:17;;;;;;;9.52;2.60;;;26.90;54.80;;;;;;5026361;28;20287;-46
2022/01/02 04:54:47;;;;;;;5.50;2.30;;;26.90;54.80;;;;;;5025835;28;20838;-48
2022/01/02 04:57:18;;;;;;;5.72;1.95;;;26.90;54.80;;;;;;5026578;28;20843;-40
2022/01/02 04:59:48;;;;;;;7.72;2.15;;;26.90;54.80;;;;;;5026721;28;20228;-43
2022/01/02 05:02:18;;;;;;;7.13;2.20;;;26.90;54.80;;;;;;5026878;28;20283;-56
2022/01/02 05:04:49;;;;;;;6.75;2.00;;;26.90;54.80;;;;;;5026006;28;20306;-44
2022/01/02 05:07:21;;;;;;;6.60;1.80;;;26.90;54.80;;;;;;5027526;28;20283;-58
2022/01/02 05:09:52;;;;;;;8.13;2.22;;;26.90;54.80;;;;;;5025252;28;20307;-55
2022/01/02 05:12:22;;;;;;;7.65;2.20;;;26.90;54.80;;;;;;5025894;28;20287;-59
2022/01/02 05:14:53;;;;;;;5.68;1.90;;;26.90;54.60;;;;;;5026627;28;20208;-46
2022/01/02 05:17:24;;;;;;;5.38;2.00;;;26.90;54.50;;;;;;5026831;28;20199;-58
2022/01/02 05:19:54;;;;;;;6.95;1.77;;;26.90;54.60;;;;;;5026726;28;20316;-54
2022/01/02 05:22:26;;;;;;;4.85;1.55;;;27.00;54.60;;;;;;5025706;28;20282;-58
2022/01/02 05:24:57;;;;;;;5.78;2.03;;;27.00;54.50;;;;;;5025304;28;20249;-44
2022/01/02 05:27:27;;;;;;;5.13;2.03;;;27.00;54.40;;;;;;5026447;28;20228;-57
2022/01/02 05:29:58;;;;;;;6.05;1.92;;;27.00;54.40;;;;;;5026688;28;20320;-52
2022/01/02 05:32:28;;;;;;;5.72;1.80;;;27.00;54.30;;;;;;5025822;28;20622;-57
2022/01/02 05:34:59;;;;;;;7.43;2.13;;;27.10;54.40;;;;;;5026867;28;20614;-52
2022/01/02 05:37:31;;;;;;;4.10;1.67;;;27.10;54.30;;;;;;5024916;28;20767;-58
2022/01/02 05:40:01;;;;;;;4.40;1.40;;;27.10;54.30;;;;;;5026005;28;20303;-57
2022/01/02 05:42:32;;;;;;;5.13;1.80;;;27.10;54.20;;;;;;5026153;28;20240;-59
2022/01/02 05:45:02;;;;;;;6.53;2.05;;;27.10;54.10;;;;;;5026732;28;20316;-57
2022/01/02 05:47:33;;;;;;;8.38;2.08;;;27.20;54.20;;;;;;5030345;28;20738;-56
2022/01/02 05:50:03;;;;;;;4.03;1.63;;;27.20;54.20;;;;;;5029415;28;20669;-55
2022/01/02 05:52:35;;;;;;;9.30;2.08;;;27.20;54.10;;;;;;5029280;28;20743;-58
2022/01/02 05:55:06;;;;;;;7.47;2.15;;;27.20;54.10;;;;;;5030941;28;20279;-54
2022/01/02 05:57:37;;;;;;;5.10;1.88;;;27.20;54.10;;;;;;5030200;28;20278;-57
2022/01/02 06:00:08;;;;;;;4.60;1.90;;;27.20;54.00;;;;;;5028849;28;20303;-47
2022/01/02 06:02:39;;;;;;;3.20;1.38;;;27.30;54.00;;;;;;5029266;28;20283;-58
2022/01/02 06:05:10;;;;;;;5.13;1.52;;;27.30;53.90;;;;;;5029699;28;20259;-58
2022/01/02 06:07:42;;;;;;;5.32;1.80;;;27.30;53.80;;;;;;5029238;28;20287;-51
2022/01/02 06:10:13;;;;;;;5.03;1.77;;;27.30;53.70;;;;;;5029202;28;20895;-51
2022/01/02 06:12:43;;;;;;;3.70;1.45;;;27.40;53.80;;;;;;5026938;28;20207;-58
2022/01/02 06:15:14;;;;;;;5.93;1.83;;;27.40;53.60;;;;;;5029687;28;20283;-55
2022/01/02 06:17:44;;;;;;;4.78;1.90;;;27.40;53.60;;;;;;5026416;28;20284;-52
2022/01/02 06:20:15;;;;;;;6.40;2.10;;;27.40;53.50;;;;;;5029776;28;20216;-58
2022/01/02 06:22:47;;;;;;;2.97;1.38;;;27.40;53.50;;;;;;5030055;28;20715;-50
2022/01/02 06:25:17;;;;;;;5.43;1.60;;;27.40;53.40;;;;;;5029864;28;20907;-58
2022/01/02 06:27:48;;;;;;;4.70;1.63;;;27.40;53.30;;;;;;5029926;28;20279;-58
2022/01/02 06:30:18;;;;;;;6.25;1.75;;;27.50;53.40;;;;;;5028878;28;20790;-54
2022/01/02 06:32:54;;;;;;;2.80;1.80;;;27.40;53.30;;;;;;5028818;28;20295;-58
2022/01/02 06:35:27;;;;;;;6.43;2.00;;;27.50;53.30;;;;;;5029364;28;20196;-59
2022/01/02 06:37:59;;;;;;;3.80;1.48;;;27.50;53.20;;;;;;5027761;28;20704;-59
2022/01/02 06:40:30;;;;;;;3.55;1.60;;;27.50;53.20;;;;;;5027491;28;20226;-55
2022/01/02 06:43:01;;;;;;;6.38;1.70;;;27.50;53.10;;;;;;5027500;28;20667;-59
2022/01/02 06:45:31;;;;;;;3.55;1.52;;;27.50;53.10;;;;;;5026830;28;20738;-51
2022/01/02 06:48:02;;;;;;;5.25;1.92;;;27.50;53.00;;;;;;5022966;28;20559;-52
2022/01/02 06:50:32;;;;;;;4.45;1.33;;;27.50;53.00;;;;;;5029073;28;20660;-44
2022/01/02 06:53:04;;;;;;;5.32;1.73;;;27.50;53.10;;;;;;5028900;28;20288;-53
2022/01/02 06:55:35;;;;;;;4.30;1.42;;;27.50;53.00;;;;;;5028730;28;20969;-48
2022/01/02 06:58:06;;;;;;;3.95;1.60;;;27.50;53.00;;;;;;5027568;28;20645;-53
2022/01/02 07:00:37;;;;;;;4.35;1.70;;;27.50;52.90;;;;;;5027994;28;20230;-50
2022/01/02 07:03:07;;;;;;;4.75;1.83;;;27.50;52.90;;;;;;5028238;28;20319;-49
2022/01/02 07:05:38;;;;;;;5.45;1.80;;;27.50;52.90;;;;;;5028648;28;20319;-53
2022/01/02 07:08:11;;;;;;;2.90;1.45;;;27.50;52.90;;;;;;5027977;28;20287;-55
2022/01/02 07:10:41;;;;;;;3.33;1.50;;;27.50;52.80;;;;;;5029296;28;20266;-49
2022/01/02 07:13:12;;;;;;;3.20;1.48;;;27.50;52.80;;;;;;5028863;28;20283;-51
2022/01/02 07:15:42;;;;;;;3.33;1.55;;;27.50;52.80;;;;;;5028455;28;20283;-52
2022/01/02 07:18:12;;;;;;;3.50;1.33;;;27.50;52.70;;;;;;5018180;28;20196;-52
2022/01/02 07:20:43;;;;;;;5.88;1.60;;;27.50;52.70;;;;;;5027796;28;20303;-42
2022/01/02 07:23:15;;;;;;;3.95;1.55;;;27.50;52.70;;;;;;5028087;28;20297;-51
2022/01/02 07:25:46;;;;;;;3.47;1.58;;;27.50;52.70;;;;;;5028364;28;20315;-51
2022/01/02 07:28:16;;;;;;;3.70;1.50;;;27.50;52.70;;;;;;5028819;28;20214;-44
2022/01/02 07:30:47;;;;;;;3.22;1.65;;;27.50;52.60;;;;;;5027890;28;20303;-44
2022/01/02 07:33:17;;;;;;;2.40;1.50;;;27.50;52.70;;;;;;5027604;28;20202;-58
2022/01/02 07:35:54;;;;;;;4.10;1.35;;;27.50;52.70;;;;;;5027185;28;20283;-52
2022/01/02 07:38:27;;;;;;;4.47;1.20;;;27.50;52.60;;;;;;5027992;28;20265;-50
2022/01/02 07:40:57;;;;;;;4.25;1.50;;;27.50;52.60;;;;;;5026989;28;20227;-50
2022/01/02 07:43:28;;;;;;;3.88;1.45;;;27.50;52.60;;;;;;5026995;28;20295;-50
2022/01/02 07:45:58;;;;;;;3.65;1.35;;;27.50;52.60;;;;;;5027450;28;20311;-50
2022/01/02 07:48:29;;;;;;;3.50;1.35;;;27.40;52.50;;;;;;5017273;28;20203;-57
2022/01/02 07:50:59;;;;;;;3.60;1.35;;;27.40;52.50;;;;;;5028177;28;20306;-52
2022/01/02 07:53:31;;;;;;;4.55;1.67;;;27.40;52.50;;;;;;5028457;28;20284;-59
2022/01/02 07:56:02;;;;;;;3.65;1.73;;;27.40;52.50;;;;;;5027473;28;20864;-51
2022/01/02 07:58:32;;;;;;;5.57;1.67;;;27.40;52.60;;;;;;5024686;28;20205;-41
2022/01/02 08:01:03;;;;;;;5.13;1.92;;;27.40;52.60;;;;;;5026340;28;20307;-41
2022/01/02 08:03:33;;;;;;;4.10;1.80;;;27.40;52.60;;;;;;5026544;28;20283;-45
2022/01/02 08:06:04;;;;;;;4.35;1.40;;;27.40;52.60;;;;;;5026748;28;20311;-41
2022/01/02 08:08:36;;;;;;;4.72;2.00;;;27.40;52.60;;;;;;5026397;28;20736;-46
2022/01/02 08:11:06;;;;;;;5.00;1.55;;;27.40;52.60;;;;;;5026118;28;20254;-52
2022/01/02 08:13:37;;;;;;;3.97;1.55;;;27.40;52.60;;;;;;5026747;28;20232;-53
2022/01/02 08:16:07;;;;;;;4.47;1.90;;;27.40;52.60;;;;;;5027827;28;20291;-59
2022/01/02 08:18:38;;;;;;;2.88;1.63;;;27.40;52.50;;;;;;5025689;28;20292;-45
2022/01/02 08:21:09;;;;;;;2.97;1.50;;;27.30;52.50;;;;;;5026433;28;20667;-56
2022/01/02 08:23:41;;;;;;;2.97;1.42;;;27.30;52.40;;;;;;5025346;28;20280;-57
2022/01/02 08:26:11;;;;;;;3.33;1.60;;;27.30;52.40;;;;;;5026986;28;20323;-56
2022/01/02 08:28:42;;;;;;;3.67;1.40;;;27.30;52.40;;;;;;5027093;28;20287;-43
2022/01/02 08:31:12;;;;;;;3.22;1.40;;;27.30;52.30;;;;;;5026749;28;20251;-48
2022/01/02 08:33:43;;;;;;;4.82;1.95;;;27.30;52.30;;;;;;5025515;28;20724;-51
2022/01/02 08:36:13;;;;;;;2.95;1.67;;;27.30;52.40;;;;;;5027035;28;20230;-59
2022/01/02 08:38:47;;;;;;;7.45;2.15;;;27.30;52.40;;;;;;5025501;28;20231;-50
2022/01/02 08:41:18;;;;;;;8.93;2.45;;;27.30;52.40;;;;;;5026849;28;20216;-59
2022/01/02 08:43:50;;;;;;;3.80;1.70;;;27.30;52.80;;;;;;5024195;28;20224;-43
2022/01/02 08:46:20;;;;;;;8.82;2.30;;;27.30;52.70;;;;;;5026093;28;20311;-62
2022/01/02 08:48:50;;;;;;;7.85;2.00;;;27.30;52.80;;;;;;5026352;28;20287;-55
2022/01/02 08:51:21;;;;;;;4.10;1.80;;;27.30;52.80;;;;;;5026524;28;20243;-61
2022/01/02 08:53:53;;;;;;;6.82;1.88;;;27.30;52.70;;;;;;5026376;28;20678;-50
2022/01/02 08:56:24;;;;;;;6.10;2.40;;;27.20;52.60;;;;;;5025840;28;20204;-62
2022/01/02 08:58:54;;;;;;;5.85;2.00;;;27.20;52.60;;;;;;5025902;28;20624;-53
2022/01/02 09:01:25;;;;;;;5.45;1.70;;;27.20;52.50;;;;;;5025596;28;20716;-57
2022/01/02 09:03:55;;;;;;;7.35;1.85;;;27.20;52.50;;;;;;5026182;28;20199;-60
2022/01/02 09:06:25;;;;;;;5.88;1.77;;;27.20;52.50;;;;;;5026303;28;20307;-62
2022/01/02 09:08:58;;;;;;;6.80;2.30;;;27.20;52.50;;;;;;5027482;28;20231;-58
2022/01/02 09:11:28;;;;;;;5.15;2.00;;;27.20;52.60;;;;;;5025692;28;20275;-60
2022/01/02 09:13:59;;;;;;;6.22;2.70;;;27.10;52.50;;;;;;5026540;28;20600;-41
2022/01/02 09:16:29;;;;;;;5.85;2.83;;;27.10;52.50;;;;;;5025329;28;20220;-55
2022/01/02 09:19:00;;;;;;;5.97;2.70;;;27.10;52.50;;;;;;5026662;28;20622;-50
2022/01/02 09:21:30;;;;;;;6.07;2.35;;;27.10;52.60;;;;;;5030338;28;20228;-55
2022/01/02 09:24:02;;;;;;;5.90;2.38;;;27.10;52.60;;;;;;5030216;28;20295;-63
2022/01/02 09:26:33;;;;;;;5.65;2.50;;;27.10;52.60;;;;;;5030015;28;20794;-62
2022/01/02 09:29:03;;;;;;;7.97;2.72;;;27.10;52.60;;;;;;5030072;28;20296;-59
2022/01/02 09:31:34;;;;;;;7.15;2.40;;;27.10;52.60;;;;;;5030226;28;20315;-62
2022/01/02 09:34:04;;;;;;;6.00;2.80;;;27.10;52.60;;;;;;5030963;28;20231;-50
2022/01/02 09:36:35;;;;;;;7.45;3.35;;;27.00;52.50;;;;;;5029806;28;20275;-60
2022/01/02 09:39:07;;;;;;;6.57;3.38;;;27.00;52.60;;;;;;5030826;28;20282;-61
2022/01/02 09:41:40;;;;;;;6.10;3.85;;;27.00;52.70;;;;;;5028511;28;20285;-62
2022/01/02 09:44:11;;;;;;;5.97;3.33;;;27.00;52.70;;;;;;5030254;28;20208;-59
2022/01/02 09:46:43;;;;;;;4.22;2.60;;;27.00;52.70;;;;;;5029662;28;20306;-62
2022/01/02 09:49:15;;;;;;;6.82;2.97;;;26.90;52.70;;;;;;5029810;28;20207;-55
2022/01/02 09:51:45;;;;;;;5.43;3.00;;;26.90;52.60;;;;;;5029666;28;20630;-59
2022/01/02 09:54:18;;;;;;;5.63;3.10;;;26.90;52.60;;;;;;5030105;28;20283;-61
2022/01/02 09:56:48;;;;;;;5.90;3.00;;;26.90;52.60;;;;;;5030021;28;20290;-59
2022/01/02 09:59:20;;;;;;;7.43;2.97;;;26.90;52.60;;;;;;5029663;28;20291;-58
2022/01/02 10:01:50;;;;;;;8.50;3.70;;;26.90;52.60;;;;;;5031097;28;20292;-56
2022/01/02 10:04:35;;;;;;;6.00;3.20;;;26.80;52.60;;;;;;5026781;28;20729;-45
2022/01/02 10:07:06;;;;;;;5.47;3.40;;;26.80;52.60;;;;;;5030629;28;20220;-42
2022/01/02 10:09:41;;;;;;;6.07;3.30;;;26.80;52.60;;;;;;5028809;28;20307;-58
2022/01/02 10:12:27;;;;;;;6.72;3.25;;;26.80;52.60;;;;;;5029817;28;20241;-44
2022/01/02 10:15:18;;;;;;;5.15;2.67;;;26.80;52.60;;;;;;5028135;28;20211;-38
2022/01/02 10:18:02;;;;;;;3.33;2.47;;;26.80;52.60;;;;;;5027004;28;20727;-44
2022/01/02 10:20:34;;;;;;;4.45;2.80;;;26.70;52.50;;;;;;5028262;28;20244;-52
2022/01/02 10:23:11;;;;;;;5.40;3.40;;;26.80;52.50;;;;;;5028982;28;20668;-60
2022/01/02 10:25:50;;;;;;;4.70;3.00;;;26.70;52.50;;;;;;5026931;28;20310;-55
2022/01/02 10:28:28;;;;;;;5.22;3.08;;;26.70;52.50;;;;;;5029312;28;20295;-60
2022/01/02 10:31:00;;;;;;;4.20;2.28;;;26.70;52.50;;;;;;5028443;28;20252;-53
2022/01/02 10:33:32;;;;;;;5.03;2.85;;;26.70;52.50;;;;;;5028688;28;20227;-50
2022/01/02 10:36:07;;;;;;;5.65;2.75;;;26.60;52.50;;;;;;5028989;28;20291;-59
2022/01/02 10:38:38;;;;;;;5.18;2.78;;;26.60;52.50;;;;;;5029902;28;20371;-62
2022/01/02 10:41:10;;;;;;;4.20;2.63;;;26.60;52.50;;;;;;5027161;28;20306;-57
2022/01/02 10:43:41;;;;;;;3.80;2.70;;;26.50;52.40;;;;;;5024497;28;20279;-57
2022/01/02 10:46:11;;;;;;;3.85;2.67;;;26.50;52.30;;;;;;5028255;28;20703;-58
2022/01/02 10:48:43;;;;;;;6.25;3.00;;;26.50;52.40;;;;;;5025814;28;20279;-60
2022/01/02 10:51:17;;;;;;;5.65;2.72;;;26.50;52.50;;;;;;5012476;28;20296;-63
2022/01/02 10:53:56;;;;;;;3.45;2.67;;;26.50;52.50;;;;;;4996779;28;20287;-56
2022/01/02 10:56:30;;;;;;;4.97;2.65;;;26.40;52.40;;;;;;5012588;28;20308;-59
2022/01/02 10:59:01;;;;;;;5.00;2.95;;;26.40;52.40;;;;;;5011171;28;20273;-51
2022/01/02 11:01:32;;;;;;;5.20;2.55;;;26.40;52.40;;;;;;5011328;28;20284;-43
2022/01/02 11:04:03;;;;;;;4.90;2.72;;;26.40;52.40;;;;;;5011071;28;20296;-59
2022/01/02 11:06:37;;;;;;;4.85;2.67;;;26.40;52.40;;;;;;5011021;28;20663;-54
2022/01/02 11:09:07;;;;;;;5.13;2.75;;;26.30;52.40;;;;;;5010783;28;20700;-62
2022/01/02 11:11:40;;;;;;;5.85;2.78;;;26.30;52.40;;;;;;5012011;28;20287;-48
2022/01/02 11:14:10;;;;;;;3.53;2.33;;;26.30;52.40;;;;;;5012224;28;20312;-61
2022/01/02 11:16:41;;;;;;;3.85;2.58;;;26.30;52.40;;;;;;5011173;28;20291;-62
2022/01/02 11:19:12;;;;;;;3.70;2.28;;;26.20;52.30;;;;;;5010845;28;20279;-40
2022/01/02 11:21:47;;;;;;;3.33;2.33;;;26.20;52.30;;;;;;5010581;28;20201;-52
2022/01/02 11:24:23;;;;;;;3.45;2.42;;;26.20;52.30;;;;;;5010824;28;20286;-52
2022/01/02 11:26:59;;;;;;;4.32;2.75;;;26.20;52.40;;;;;;5012023;28;20313;-62
2022/01/02 11:29:31;;;;;;;4.55;2.72;;;26.10;52.40;;;;;;5010540;28;20248;-58
2022/01/02 11:32:02;;;;;;;3.60;2.25;;;26.10;52.40;;;;;;5010432;28;20231;-49
2022/01/02 11:34:36;;;;;;;3.95;2.60;;;26.10;52.30;;;;;;5006940;28;20228;-61
2022/01/02 11:37:22;;;;;;;3.00;2.47;;;26.10;52.40;;;;;;5011395;28;20204;-62
2022/01/02 11:39:58;;;;;;;3.88;2.40;;;26.00;52.30;;;;;;5009161;28;20292;-59
2022/01/02 11:42:49;;;;;;;4.38;2.20;;;26.10;52.40;;;;;;5011761;28;20230;-51
2022/01/02 11:45:43;;;;;;;3.80;2.13;;;26.00;52.40;;;;;;5011570;28;20687;-53
2022/01/02 11:48:32;;;;;;;3.75;2.28;;;25.90;52.30;;;;;;5010573;28;20284;-52
2022/01/02 11:51:02;;;;;;;3.08;2.47;;;25.90;52.30;;;;;;5011368;28;20220;-52
2022/01/02 11:53:35;;;;;;;3.22;1.92;;;25.90;52.20;;;;;;5010569;28;20251;-56
2022/01/02 11:56:06;;;;;;;3.65;2.00;;;25.90;52.30;;;;;;5011869;28;20205;-47
2022/01/02 11:58:54;;;;;;;3.65;2.22;;;25.90;52.30;;;;;;5011563;28;20215;-52
2022/01/02 12:01:47;;;;;;;3.85;2.30;;;25.80;52.30;;;;;;5010141;28;20312;-55
2022/01/02 12:04:18;;;;;;;3.60;2.20;;;25.80;52.40;;;;;;5010144;28;20196;-54
2022/01/02 12:06:52;;;;;;;3.45;1.85;;;25.80;52.40;;;;;;4994405;28;20668;-61
2022/01/02 12:09:39;;;;;;;4.15;2.15;;;25.80;52.40;;;;;;5011250;28;20910;-51
2022/01/02 12:12:10;;;;;;;3.05;2.08;;;25.80;52.40;;;;;;4996916;28;20283;-61
2022/01/02 12:14:58;;;;;;;3.05;2.00;;;25.70;52.30;;;;;;5009933;28;20272;-53
2022/01/02 12:18:07;;;;;;;2.88;2.00;;;25.80;52.40;;;;;;5010032;28;20201;-47
2022/01/02 12:21:09;;;;;;;3.17;2.15;;;25.70;52.30;;;;;;5009405;28;20695;-48
2022/01/02 12:23:56;;;;;;;2.70;1.85;;;25.70;52.30;;;;;;5009324;28;20632;-57
2022/01/02 12:26:33;;;;;;;3.67;2.15;;;25.60;52.30;;;;;;5005343;28;20248;-47
2022/01/02 12:29:07;;;;;;;2.72;1.90;;;25.60;52.30;;;;;;5009620;28;20637;-62
2022/01/02 12:31:40;;;;;;;3.55;2.10;;;25.60;52.30;;;;;;5009326;28;20698;-50
2022/01/02 12:34:14;;;;;;;2.90;2.10;;;25.50;52.30;;;;;;5009098;28;20347;-64
2022/01/02 12:36:46;;;;;;;2.55;2.00;;;25.50;52.40;;;;;;4999040;28;20687;-62
2022/01/02 12:39:17;;;;;;;3.25;1.80;;;25.50;52.40;;;;;;5009689;28;20259;-57
2022/01/02 12:41:48;;;;;;;2.75;1.90;;;25.50;52.40;;;;;;5010909;28;20259;-64
2022/01/02 12:44:28;;;;;;;3.20;1.92;;;25.50;52.30;;;;;;5010748;28;20239;-46
2022/01/02 12:47:01;;;;;;;4.13;2.20;;;25.40;52.30;;;;;;5009601;28;20220;-41
2022/01/02 12:49:33;;;;;;;3.92;2.47;;;25.40;52.30;;;;;;5009157;28;20300;-54
2022/01/02 12:52:05;;;;;;;2.55;1.60;;;25.40;52.30;;;;;;5011003;28;20283;-56
2022/01/02 12:54:36;;;;;;;3.03;1.73;;;25.40;52.30;;;;;;5010250;28;20291;-48
2022/01/02 12:57:09;;;;;;;3.88;1.90;;;25.30;52.30;;;;;;5009126;28;20291;-52
2022/01/02 12:59:41;;;;;;;2.67;1.85;;;25.30;52.30;;;;;;5009330;28;20221;-57
2022/01/02 13:02:14;;;;;;;2.95;1.98;;;25.30;52.40;;;;;;5001939;28;20276;-61
2022/01/02 13:04:46;;;;;;;2.78;1.95;;;25.30;52.40;;;;;;5008386;28;20755;-46
2022/01/02 13:07:18;;;;;;;2.65;1.75;;;25.30;52.30;;;;;;5010506;28;20307;-48
2022/01/02 13:09:50;;;;;;;2.85;2.00;;;25.30;52.30;;;;;;5008767;28;20221;-43
2022/01/02 13:12:22;;;;;;;3.05;1.85;;;25.30;52.40;;;;;;5009236;28;20296;-42
2022/01/02 13:14:54;;;;;;;1.75;1.50;;;25.20;52.30;;;;;;4993521;28;20296;-45
2022/01/02 13:17:28;;;;;;;2.08;1.65;;;25.20;52.40;;;;;;4992652;28;20280;-39
2022/01/02 13:20:02;;;;;;;2.80;1.90;;;25.20;52.40;;;;;;5008853;28;20711;-39
2022/01/02 13:22:34;;;;;;;2.40;1.25;;;25.10;52.30;;;;;;5010214;28;20283;-49
2022/01/02 13:25:10;;;;;;;4.10;2.00;;;25.10;52.40;;;;;;5009020;28;20303;-51
2022/01/02 13:27:52;;;;;;;2.58;1.70;;;25.10;52.40;;;;;;5009015;28;20239;-56
2022/01/02 13:30:24;;;;;;;2.60;1.75;;;25.10;52.50;;;;;;5008522;28;20232;-47
2022/01/02 13:33:01;;;;;;;3.08;1.83;;;25.00;52.30;;;;;;5008879;28;20284;-41
2022/01/02 13:35:32;;;;;;;2.28;1.55;;;25.00;52.30;;;;;;5008215;28;20233;-47
2022/01/02 13:38:04;;;;;;;2.38;1.55;;;25.00;52.30;;;;;;5010831;28;20284;-59
2022/01/02 13:40:36;;;;;;;2.45;1.50;;;25.00;52.40;;;;;;5009365;28;20220;-62
2022/01/02 13:43:11;;;;;;;1.60;1.50;;;25.00;52.40;;;;;;5009960;28;20287;-61